Pagrindinis puslapis
METAR-TAF:

METAR-TAF

Oro uostai :

Mandalajus, Mianmaras

platuma: 21-59N, ilguma: 096-06E, Aukštis: 74 m

Dabartinis oras

Ataskaita buvo paskelbta 26 minutes, ne 15:30 UTC
Vėjas 4 kt iš Šiaurės Rytų
Temperatūra 22°C
Drėgmė 83%
Slėgis 1011 hPa
Matomumas: 5000 m
Mažai debesys ne aukštis 2000 ft
migla

METAR: VYMD 191530Z 05004KT 5000 HZ FEW020 22/19 Q1011

Laikas: 22:26 (15:56 UTC)

Prognozė

Ataskaita buvo paskelbta 4 valandos ir 56 minutes, ne 11:00 UTC
Prognozė galioja nuo 19 metu 12 UTC su 20 metu 12 UTC
Vėjas 5 kt iš Vakarų/Šiaurės Vakarų
Matomumas: 6000 m
Išsisklaidę debesys ne aukštis 2000 ft
Laikinai
nuo 19 metu 12 UTC su 19 metu 18 UTC
Vėjas 4 kt iš Šiaurės/Šiaurės Vakarų
Matomumas: 5000 m
Išsisklaidę debesys ne aukštis 2000 ft
migla

TAF: VYMD 191100Z 1912/2012 30005KT 6000 SCT020 TEMPO 1912/1918 33004KT 5000 HZ SCT020

Orai ataskaitas ir orų prognozės (METAR, TAF).

turimą stotys yra geltonos ir raudonos taškus žemėlapyje.

Perkelti pele per norėdami pamatyti stoties vardą.

Tada spustelėkite, norėdami matyti oro stebėjimo ir prognozės.

Norėdami pakeisti žemėlapį: spustelėkite ant žalios mygtukų su juodo kryžiaus žemyn,; žalią mygtuką su brūkšneliu, jei norite nutolinti; arba žalių rodyklių gretimoms žemėlapius.


METAR-TAF: